sensor_id;sensor_type;location;lat;lon;timestamp;P1;durP1;ratioP1;P2;durP2;ratioP2
19940;SDS011;10132;50.864;5.176;2023-06-14T00:01:27;6.78;;;4.85;;
19940;SDS011;10132;50.864;5.176;2023-06-14T00:03:29;9.40;;;5.03;;
19940;SDS011;10132;50.864;5.176;2023-06-14T00:05:32;5.05;;;4.63;;
19940;SDS011;10132;50.864;5.176;2023-06-14T00:07:40;7.18;;;4.55;;
19940;SDS011;10132;50.864;5.176;2023-06-14T00:09:43;6.90;;;5.40;;
19940;SDS011;10132;50.864;5.176;2023-06-14T00:11:45;5.85;;;4.30;;
19940;SDS011;10132;50.864;5.176;2023-06-14T00:13:48;9.85;;;4.70;;
19940;SDS011;10132;50.864;5.176;2023-06-14T00:15:50;8.23;;;5.03;;
19940;SDS011;10132;50.864;5.176;2023-06-14T00:17:55;6.97;;;4.95;;
19940;SDS011;10132;50.864;5.176;2023-06-14T00:20:01;8.57;;;5.32;;
19940;SDS011;10132;50.864;5.176;2023-06-14T00:22:06;6.75;;;5.25;;
19940;SDS011;10132;50.864;5.176;2023-06-14T00:24:09;7.93;;;5.18;;
19940;SDS011;10132;50.864;5.176;2023-06-14T00:26:11;5.50;;;5.00;;
19940;SDS011;10132;50.864;5.176;2023-06-14T00:28:13;7.50;;;4.85;;
19940;SDS011;10132;50.864;5.176;2023-06-14T00:30:15;7.57;;;4.70;;
19940;SDS011;10132;50.864;5.176;2023-06-14T00:32:17;7.05;;;5.20;;
19940;SDS011;10132;50.864;5.176;2023-06-14T00:34:24;6.05;;;4.57;;
19940;SDS011;10132;50.864;5.176;2023-06-14T00:36:26;5.43;;;4.90;;
19940;SDS011;10132;50.864;5.176;2023-06-14T00:38:28;8.77;;;5.68;;
19940;SDS011;10132;50.864;5.176;2023-06-14T00:40:31;7.70;;;5.50;;
19940;SDS011;10132;50.864;5.176;2023-06-14T00:42:34;6.43;;;5.72;;
19940;SDS011;10132;50.864;5.176;2023-06-14T00:44:36;7.20;;;5.28;;
19940;SDS011;10132;50.864;5.176;2023-06-14T00:46:38;6.50;;;5.35;;
19940;SDS011;10132;50.864;5.176;2023-06-14T00:48:40;10.43;;;5.10;;
19940;SDS011;10132;50.864;5.176;2023-06-14T00:50:43;7.50;;;5.40;;
19940;SDS011;10132;50.864;5.176;2023-06-14T00:52:48;10.05;;;5.47;;
19940;SDS011;10132;50.864;5.176;2023-06-14T00:54:51;6.60;;;4.85;;
19940;SDS011;10132;50.864;5.176;2023-06-14T00:56:54;5.97;;;5.18;;
19940;SDS011;10132;50.864;5.176;2023-06-14T00:58:56;9.57;;;5.78;;
19940;SDS011;10132;50.864;5.176;2023-06-14T01:00:59;10.50;;;5.60;;
19940;SDS011;10132;50.864;5.176;2023-06-14T01:03:02;6.60;;;4.88;;
19940;SDS011;10132;50.864;5.176;2023-06-14T01:05:04;7.97;;;5.47;;
19940;SDS011;10132;50.864;5.176;2023-06-14T01:07:09;6.70;;;6.03;;
19940;SDS011;10132;50.864;5.176;2023-06-14T01:09:18;7.70;;;5.63;;
19940;SDS011;10132;50.864;5.176;2023-06-14T01:11:28;5.93;;;5.32;;
19940;SDS011;10132;50.864;5.176;2023-06-14T01:13:37;7.18;;;5.30;;
19940;SDS011;10132;50.864;5.176;2023-06-14T01:15:40;7.32;;;5.40;;
19940;SDS011;10132;50.864;5.176;2023-06-14T01:17:44;11.32;;;5.65;;
19940;SDS011;10132;50.864;5.176;2023-06-14T01:19:47;6.45;;;5.20;;
19940;SDS011;10132;50.864;5.176;2023-06-14T01:21:49;8.82;;;5.63;;
19940;SDS011;10132;50.864;5.176;2023-06-14T01:23:52;8.45;;;5.82;;
19940;SDS011;10132;50.864;5.176;2023-06-14T01:25:54;6.00;;;5.30;;
19940;SDS011;10132;50.864;5.176;2023-06-14T01:27:57;8.10;;;5.38;;
19940;SDS011;10132;50.864;5.176;2023-06-14T01:30:10;5.80;;;5.20;;
19940;SDS011;10132;50.864;5.176;2023-06-14T01:32:13;5.75;;;4.75;;
19940;SDS011;10132;50.864;5.176;2023-06-14T01:34:15;6.30;;;5.60;;
19940;SDS011;10132;50.864;5.176;2023-06-14T01:36:18;7.18;;;5.50;;
19940;SDS011;10132;50.864;5.176;2023-06-14T01:38:21;8.00;;;5.85;;
19940;SDS011;10132;50.864;5.176;2023-06-14T01:40:27;8.85;;;5.78;;
19940;SDS011;10132;50.864;5.176;2023-06-14T01:42:29;7.97;;;5.80;;
19940;SDS011;10132;50.864;5.176;2023-06-14T01:44:32;8.68;;;6.10;;
19940;SDS011;10132;50.864;5.176;2023-06-14T01:46:35;7.57;;;6.25;;
19940;SDS011;10132;50.864;5.176;2023-06-14T01:48:37;7.13;;;5.25;;
19940;SDS011;10132;50.864;5.176;2023-06-14T01:50:39;7.45;;;5.70;;
19940;SDS011;10132;50.864;5.176;2023-06-14T01:52:42;6.13;;;5.53;;
19940;SDS011;10132;50.864;5.176;2023-06-14T01:54:44;6.47;;;5.80;;
19940;SDS011;10132;50.864;5.176;2023-06-14T01:56:49;9.68;;;6.43;;
19940;SDS011;10132;50.864;5.176;2023-06-14T01:58:51;7.38;;;5.85;;
19940;SDS011;10132;50.864;5.176;2023-06-14T02:00:53;7.60;;;6.07;;
19940;SDS011;10132;50.864;5.176;2023-06-14T02:02:56;7.63;;;5.75;;
19940;SDS011;10132;50.864;5.176;2023-06-14T02:04:58;5.95;;;5.20;;
19940;SDS011;10132;50.864;5.176;2023-06-14T02:07:00;6.40;;;5.53;;
19940;SDS011;10132;50.864;5.176;2023-06-14T02:09:02;7.53;;;5.70;;
19940;SDS011;10132;50.864;5.176;2023-06-14T02:11:04;6.35;;;5.72;;
19940;SDS011;10132;50.864;5.176;2023-06-14T02:13:07;8.48;;;6.15;;
19940;SDS011;10132;50.864;5.176;2023-06-14T02:15:09;6.60;;;5.70;;
19940;SDS011;10132;50.864;5.176;2023-06-14T02:17:16;7.10;;;6.30;;
19940;SDS011;10132;50.864;5.176;2023-06-14T02:19:18;6.53;;;5.93;;
19940;SDS011;10132;50.864;5.176;2023-06-14T02:21:21;8.77;;;6.30;;
19940;SDS011;10132;50.864;5.176;2023-06-14T02:23:23;7.30;;;6.05;;
19940;SDS011;10132;50.864;5.176;2023-06-14T02:25:25;9.13;;;6.10;;
19940;SDS011;10132;50.864;5.176;2023-06-14T02:27:28;8.70;;;5.80;;
19940;SDS011;10132;50.864;5.176;2023-06-14T02:29:31;6.33;;;5.67;;
19940;SDS011;10132;50.864;5.176;2023-06-14T02:31:33;8.43;;;6.30;;
19940;SDS011;10132;50.864;5.176;2023-06-14T02:33:36;9.00;;;6.72;;
19940;SDS011;10132;50.864;5.176;2023-06-14T02:35:38;7.27;;;6.37;;
19940;SDS011;10132;50.864;5.176;2023-06-14T02:37:40;7.13;;;6.43;;
19940;SDS011;10132;50.864;5.176;2023-06-14T02:39:42;9.53;;;6.60;;
19940;SDS011;10132;50.864;5.176;2023-06-14T02:41:44;7.57;;;6.87;;
19940;SDS011;10132;50.864;5.176;2023-06-14T02:43:46;10.00;;;7.00;;
19940;SDS011;10132;50.864;5.176;2023-06-14T02:45:49;7.20;;;6.47;;
19940;SDS011;10132;50.864;5.176;2023-06-14T02:47:52;7.00;;;6.30;;
19940;SDS011;10132;50.864;5.176;2023-06-14T02:49:55;6.73;;;6.03;;
19940;SDS011;10132;50.864;5.176;2023-06-14T02:51:59;7.20;;;6.50;;
19940;SDS011;10132;50.864;5.176;2023-06-14T02:54:01;7.67;;;6.57;;
19940;SDS011;10132;50.864;5.176;2023-06-14T02:56:03;7.30;;;6.50;;
19940;SDS011;10132;50.864;5.176;2023-06-14T02:58:06;10.67;;;7.00;;
19940;SDS011;10132;50.864;5.176;2023-06-14T03:00:08;9.93;;;6.63;;
19940;SDS011;10132;50.864;5.176;2023-06-14T03:02:14;12.00;;;7.03;;
19940;SDS011;10132;50.864;5.176;2023-06-14T03:04:16;8.50;;;6.43;;
19940;SDS011;10132;50.864;5.176;2023-06-14T03:06:18;13.30;;;6.93;;
19940;SDS011;10132;50.864;5.176;2023-06-14T03:08:20;8.80;;;7.20;;
19940;SDS011;10132;50.864;5.176;2023-06-14T03:10:27;8.83;;;6.90;;
19940;SDS011;10132;50.864;5.176;2023-06-14T03:12:29;8.97;;;6.53;;
19940;SDS011;10132;50.864;5.176;2023-06-14T03:14:31;7.50;;;6.83;;
19940;SDS011;10132;50.864;5.176;2023-06-14T03:16:34;9.17;;;6.80;;
19940;SDS011;10132;50.864;5.176;2023-06-14T03:18:38;9.33;;;7.13;;
19940;SDS011;10132;50.864;5.176;2023-06-14T03:20:40;9.50;;;7.20;;
19940;SDS011;10132;50.864;5.176;2023-06-14T03:22:42;9.30;;;6.60;;
19940;SDS011;10132;50.864;5.176;2023-06-14T03:24:46;8.33;;;6.70;;
19940;SDS011;10132;50.864;5.176;2023-06-14T03:26:48;8.57;;;7.07;;
19940;SDS011;10132;50.864;5.176;2023-06-14T03:28:50;8.50;;;6.63;;
19940;SDS011;10132;50.864;5.176;2023-06-14T03:30:51;6.87;;;6.27;;
19940;SDS011;10132;50.864;5.176;2023-06-14T03:32:54;7.77;;;6.40;;
19940;SDS011;10132;50.864;5.176;2023-06-14T03:34:57;7.67;;;6.90;;
19940;SDS011;10132;50.864;5.176;2023-06-14T03:36:59;10.80;;;6.97;;
19940;SDS011;10132;50.864;5.176;2023-06-14T03:39:01;7.70;;;6.90;;
19940;SDS011;10132;50.864;5.176;2023-06-14T03:41:03;10.50;;;7.57;;
19940;SDS011;10132;50.864;5.176;2023-06-14T03:43:05;8.90;;;6.87;;
19940;SDS011;10132;50.864;5.176;2023-06-14T03:45:07;11.60;;;7.17;;
19940;SDS011;10132;50.864;5.176;2023-06-14T03:47:09;9.50;;;6.60;;
19940;SDS011;10132;50.864;5.176;2023-06-14T03:49:11;10.13;;;7.03;;
19940;SDS011;10132;50.864;5.176;2023-06-14T03:51:15;8.00;;;7.20;;
19940;SDS011;10132;50.864;5.176;2023-06-14T03:53:17;9.23;;;7.47;;
19940;SDS011;10132;50.864;5.176;2023-06-14T03:55:20;10.97;;;7.63;;
19940;SDS011;10132;50.864;5.176;2023-06-14T03:57:25;11.07;;;8.03;;
19940;SDS011;10132;50.864;5.176;2023-06-14T03:59:27;8.80;;;7.30;;
19940;SDS011;10132;50.864;5.176;2023-06-14T04:01:29;13.43;;;7.50;;
19940;SDS011;10132;50.864;5.176;2023-06-14T04:03:31;8.43;;;6.97;;
19940;SDS011;10132;50.864;5.176;2023-06-14T04:05:33;10.47;;;6.80;;
19940;SDS011;10132;50.864;5.176;2023-06-14T04:07:37;10.20;;;7.90;;
19940;SDS011;10132;50.864;5.176;2023-06-14T04:09:40;11.30;;;7.63;;
19940;SDS011;10132;50.864;5.176;2023-06-14T04:11:42;13.07;;;7.50;;
19940;SDS011;10132;50.864;5.176;2023-06-14T04:13:44;12.33;;;8.50;;
19940;SDS011;10132;50.864;5.176;2023-06-14T04:15:47;11.53;;;7.43;;
19940;SDS011;10132;50.864;5.176;2023-06-14T04:17:49;8.43;;;7.17;;
19940;SDS011;10132;50.864;5.176;2023-06-14T04:19:50;7.83;;;7.03;;
19940;SDS011;10132;50.864;5.176;2023-06-14T04:21:52;10.63;;;8.10;;
19940;SDS011;10132;50.864;5.176;2023-06-14T04:23:56;9.17;;;7.47;;
19940;SDS011;10132;50.864;5.176;2023-06-14T04:25:58;10.43;;;6.83;;
19940;SDS011;10132;50.864;5.176;2023-06-14T04:28:02;13.03;;;7.37;;
19940;SDS011;10132;50.864;5.176;2023-06-14T04:30:05;10.03;;;7.37;;
19940;SDS011;10132;50.864;5.176;2023-06-14T04:32:08;8.50;;;7.43;;
19940;SDS011;10132;50.864;5.176;2023-06-14T04:34:10;9.93;;;7.60;;
19940;SDS011;10132;50.864;5.176;2023-06-14T04:36:16;9.20;;;7.20;;
19940;SDS011;10132;50.864;5.176;2023-06-14T04:38:19;8.90;;;8.00;;
19940;SDS011;10132;50.864;5.176;2023-06-14T04:40:26;13.10;;;8.03;;
19940;SDS011;10132;50.864;5.176;2023-06-14T04:42:28;13.50;;;8.20;;
19940;SDS011;10132;50.864;5.176;2023-06-14T04:44:32;11.50;;;8.43;;
19940;SDS011;10132;50.864;5.176;2023-06-14T04:46:34;13.77;;;8.40;;
19940;SDS011;10132;50.864;5.176;2023-06-14T04:48:45;12.57;;;8.60;;
19940;SDS011;10132;50.864;5.176;2023-06-14T04:50:48;10.33;;;7.87;;
19940;SDS011;10132;50.864;5.176;2023-06-14T04:52:52;9.23;;;8.17;;
19940;SDS011;10132;50.864;5.176;2023-06-14T04:54:55;10.13;;;8.17;;
19940;SDS011;10132;50.864;5.176;2023-06-14T04:56:59;13.30;;;8.70;;
19940;SDS011;10132;50.864;5.176;2023-06-14T04:59:01;11.63;;;8.40;;
19940;SDS011;10132;50.864;5.176;2023-06-14T05:01:04;11.07;;;8.50;;
19940;SDS011;10132;50.864;5.176;2023-06-14T05:03:09;9.50;;;8.00;;
19940;SDS011;10132;50.864;5.176;2023-06-14T05:05:13;13.53;;;8.80;;
19940;SDS011;10132;50.864;5.176;2023-06-14T05:07:15;12.05;;;8.20;;
19940;SDS011;10132;50.864;5.176;2023-06-14T05:09:17;11.38;;;8.90;;
19940;SDS011;10132;50.864;5.176;2023-06-14T05:11:20;12.07;;;8.87;;
19940;SDS011;10132;50.864;5.176;2023-06-14T05:13:25;16.93;;;9.50;;
19940;SDS011;10132;50.864;5.176;2023-06-14T05:15:28;10.77;;;8.80;;
19940;SDS011;10132;50.864;5.176;2023-06-14T05:17:30;13.57;;;8.87;;
19940;SDS011;10132;50.864;5.176;2023-06-14T05:19:32;10.17;;;8.60;;
19940;SDS011;10132;50.864;5.176;2023-06-14T05:21:34;9.65;;;8.27;;
19940;SDS011;10132;50.864;5.176;2023-06-14T05:23:36;9.60;;;8.25;;
19940;SDS011;10132;50.864;5.176;2023-06-14T05:25:37;9.60;;;8.17;;
19940;SDS011;10132;50.864;5.176;2023-06-14T05:27:40;12.02;;;8.18;;
19940;SDS011;10132;50.864;5.176;2023-06-14T05:29:43;28.70;;;8.97;;
19940;SDS011;10132;50.864;5.176;2023-06-14T05:31:45;13.50;;;8.50;;
19940;SDS011;10132;50.864;5.176;2023-06-14T05:33:47;12.98;;;8.00;;
19940;SDS011;10132;50.864;5.176;2023-06-14T05:35:49;14.95;;;8.10;;
19940;SDS011;10132;50.864;5.176;2023-06-14T05:37:51;10.88;;;8.27;;
19940;SDS011;10132;50.864;5.176;2023-06-14T05:39:55;12.30;;;8.30;;
19940;SDS011;10132;50.864;5.176;2023-06-14T05:41:56;9.48;;;7.82;;
19940;SDS011;10132;50.864;5.176;2023-06-14T05:43:58;13.30;;;8.02;;
19940;SDS011;10132;50.864;5.176;2023-06-14T05:46:02;12.13;;;8.15;;
19940;SDS011;10132;50.864;5.176;2023-06-14T05:48:04;8.98;;;7.55;;
19940;SDS011;10132;50.864;5.176;2023-06-14T05:50:07;11.07;;;7.72;;
19940;SDS011;10132;50.864;5.176;2023-06-14T05:52:09;9.68;;;7.60;;
19940;SDS011;10132;50.864;5.176;2023-06-14T05:54:13;12.40;;;8.50;;
19940;SDS011;10132;50.864;5.176;2023-06-14T05:56:15;12.00;;;8.07;;
19940;SDS011;10132;50.864;5.176;2023-06-14T05:58:19;12.52;;;8.27;;
19940;SDS011;10132;50.864;5.176;2023-06-14T06:00:21;13.13;;;8.52;;
19940;SDS011;10132;50.864;5.176;2023-06-14T06:02:24;10.32;;;7.85;;
19940;SDS011;10132;50.864;5.176;2023-06-14T06:04:26;11.65;;;7.63;;
19940;SDS011;10132;50.864;5.176;2023-06-14T06:06:28;11.38;;;8.13;;
19940;SDS011;10132;50.864;5.176;2023-06-14T06:08:30;13.48;;;7.93;;
19940;SDS011;10132;50.864;5.176;2023-06-14T06:10:32;10.73;;;7.70;;
19940;SDS011;10132;50.864;5.176;2023-06-14T06:12:34;13.30;;;8.38;;
19940;SDS011;10132;50.864;5.176;2023-06-14T06:14:36;12.75;;;7.97;;
19940;SDS011;10132;50.864;5.176;2023-06-14T06:16:38;19.05;;;7.82;;
19940;SDS011;10132;50.864;5.176;2023-06-14T06:18:41;9.50;;;7.57;;
19940;SDS011;10132;50.864;5.176;2023-06-14T06:20:43;9.65;;;7.15;;
19940;SDS011;10132;50.864;5.176;2023-06-14T06:22:47;11.38;;;7.45;;
19940;SDS011;10132;50.864;5.176;2023-06-14T06:24:49;15.30;;;7.35;;
19940;SDS011;10132;50.864;5.176;2023-06-14T06:26:51;11.15;;;7.22;;
19940;SDS011;10132;50.864;5.176;2023-06-14T06:28:52;10.50;;;6.57;;
19940;SDS011;10132;50.864;5.176;2023-06-14T06:30:55;11.50;;;7.43;;
19940;SDS011;10132;50.864;5.176;2023-06-14T06:32:57;13.07;;;7.38;;
19940;SDS011;10132;50.864;5.176;2023-06-14T06:35:00;10.65;;;7.20;;
19940;SDS011;10132;50.864;5.176;2023-06-14T06:37:03;13.85;;;7.40;;
19940;SDS011;10132;50.864;5.176;2023-06-14T06:39:06;14.10;;;7.45;;
19940;SDS011;10132;50.864;5.176;2023-06-14T06:41:10;10.13;;;6.95;;
19940;SDS011;10132;50.864;5.176;2023-06-14T06:43:12;9.15;;;6.65;;
19940;SDS011;10132;50.864;5.176;2023-06-14T06:45:14;20.98;;;7.00;;
19940;SDS011;10132;50.864;5.176;2023-06-14T06:47:16;12.63;;;6.60;;
19940;SDS011;10132;50.864;5.176;2023-06-14T06:49:18;7.78;;;6.78;;
19940;SDS011;10132;50.864;5.176;2023-06-14T06:51:22;10.05;;;6.03;;
19940;SDS011;10132;50.864;5.176;2023-06-14T06:53:24;8.68;;;6.70;;
19940;SDS011;10132;50.864;5.176;2023-06-14T06:55:26;10.23;;;6.88;;
19940;SDS011;10132;50.864;5.176;2023-06-14T06:57:28;10.10;;;6.57;;
19940;SDS011;10132;50.864;5.176;2023-06-14T06:59:30;10.02;;;6.43;;
19940;SDS011;10132;50.864;5.176;2023-06-14T07:01:33;11.98;;;7.00;;
19940;SDS011;10132;50.864;5.176;2023-06-14T07:03:36;8.68;;;6.50;;
19940;SDS011;10132;50.864;5.176;2023-06-14T07:05:38;9.98;;;6.80;;
19940;SDS011;10132;50.864;5.176;2023-06-14T07:07:41;9.88;;;7.57;;
19940;SDS011;10132;50.864;5.176;2023-06-14T07:09:43;9.77;;;6.82;;
19940;SDS011;10132;50.864;5.176;2023-06-14T07:11:46;12.65;;;6.68;;
19940;SDS011;10132;50.864;5.176;2023-06-14T07:13:48;11.55;;;6.97;;
19940;SDS011;10132;50.864;5.176;2023-06-14T07:15:50;10.02;;;7.03;;
19940;SDS011;10132;50.864;5.176;2023-06-14T07:17:55;9.75;;;7.03;;
19940;SDS011;10132;50.864;5.176;2023-06-14T07:19:59;10.15;;;6.35;;
19940;SDS011;10132;50.864;5.176;2023-06-14T07:22:05;15.02;;;7.18;;
19940;SDS011;10132;50.864;5.176;2023-06-14T07:24:09;14.82;;;6.28;;
19940;SDS011;10132;50.864;5.176;2023-06-14T07:26:10;10.50;;;6.30;;
19940;SDS011;10132;50.864;5.176;2023-06-14T07:28:12;14.30;;;6.75;;
19940;SDS011;10132;50.864;5.176;2023-06-14T07:30:14;12.70;;;6.88;;
19940;SDS011;10132;50.864;5.176;2023-06-14T07:32:16;10.55;;;6.97;;
19940;SDS011;10132;50.864;5.176;2023-06-14T07:34:18;9.23;;;6.85;;
19940;SDS011;10132;50.864;5.176;2023-06-14T07:36:20;12.88;;;6.55;;
19940;SDS011;10132;50.864;5.176;2023-06-14T07:38:23;9.73;;;6.57;;
19940;SDS011;10132;50.864;5.176;2023-06-14T07:40:26;11.15;;;6.53;;
19940;SDS011;10132;50.864;5.176;2023-06-14T07:42:28;8.05;;;5.63;;
19940;SDS011;10132;50.864;5.176;2023-06-14T07:44:30;9.75;;;6.15;;
19940;SDS011;10132;50.864;5.176;2023-06-14T07:46:32;13.13;;;6.57;;
19940;SDS011;10132;50.864;5.176;2023-06-14T07:48:34;8.98;;;5.78;;
19940;SDS011;10132;50.864;5.176;2023-06-14T07:50:36;11.13;;;5.40;;
19940;SDS011;10132;50.864;5.176;2023-06-14T07:52:38;9.65;;;5.93;;
19940;SDS011;10132;50.864;5.176;2023-06-14T07:54:40;7.45;;;5.90;;
19940;SDS011;10132;50.864;5.176;2023-06-14T07:56:44;8.15;;;6.18;;
19940;SDS011;10132;50.864;5.176;2023-06-14T07:58:46;11.82;;;5.20;;
19940;SDS011;10132;50.864;5.176;2023-06-14T08:00:48;9.18;;;5.60;;
19940;SDS011;10132;50.864;5.176;2023-06-14T08:02:50;10.00;;;5.47;;
19940;SDS011;10132;50.864;5.176;2023-06-14T08:04:58;9.15;;;5.07;;
19940;SDS011;10132;50.864;5.176;2023-06-14T08:07:00;10.65;;;5.30;;
19940;SDS011;10132;50.864;5.176;2023-06-14T08:09:02;8.80;;;5.10;;
19940;SDS011;10132;50.864;5.176;2023-06-14T08:11:04;5.88;;;4.95;;
19940;SDS011;10132;50.864;5.176;2023-06-14T08:13:08;7.60;;;4.90;;
19940;SDS011;10132;50.864;5.176;2023-06-14T08:15:10;7.55;;;5.25;;
19940;SDS011;10132;50.864;5.176;2023-06-14T08:17:12;12.40;;;5.50;;
19940;SDS011;10132;50.864;5.176;2023-06-14T08:19:14;9.13;;;5.35;;
19940;SDS011;10132;50.864;5.176;2023-06-14T08:21:18;6.90;;;5.32;;
19940;SDS011;10132;50.864;5.176;2023-06-14T08:23:20;7.22;;;4.90;;
19940;SDS011;10132;50.864;5.176;2023-06-14T08:25:22;10.98;;;4.80;;
19940;SDS011;10132;50.864;5.176;2023-06-14T08:27:24;7.43;;;5.68;;
19940;SDS011;10132;50.864;5.176;2023-06-14T08:29:27;12.30;;;5.70;;
19940;SDS011;10132;50.864;5.176;2023-06-14T08:31:30;10.23;;;5.10;;
19940;SDS011;10132;50.864;5.176;2023-06-14T08:33:33;8.82;;;5.07;;
19940;SDS011;10132;50.864;5.176;2023-06-14T08:35:35;10.27;;;5.22;;
19940;SDS011;10132;50.864;5.176;2023-06-14T08:37:39;10.40;;;5.40;;
19940;SDS011;10132;50.864;5.176;2023-06-14T08:39:42;6.72;;;4.78;;
19940;SDS011;10132;50.864;5.176;2023-06-14T08:41:46;9.30;;;4.90;;
19940;SDS011;10132;50.864;5.176;2023-06-14T08:43:48;10.73;;;4.57;;
19940;SDS011;10132;50.864;5.176;2023-06-14T08:45:52;10.05;;;4.95;;
19940;SDS011;10132;50.864;5.176;2023-06-14T08:48:00;6.97;;;4.38;;
19940;SDS011;10132;50.864;5.176;2023-06-14T08:50:03;7.43;;;4.55;;
19940;SDS011;10132;50.864;5.176;2023-06-14T08:52:06;7.63;;;4.68;;
19940;SDS011;10132;50.864;5.176;2023-06-14T08:54:13;19.40;;;5.05;;
19940;SDS011;10132;50.864;5.176;2023-06-14T08:56:15;10.63;;;4.70;;
19940;SDS011;10132;50.864;5.176;2023-06-14T08:58:17;7.38;;;5.00;;
19940;SDS011;10132;50.864;5.176;2023-06-14T09:00:20;7.22;;;4.97;;
19940;SDS011;10132;50.864;5.176;2023-06-14T09:02:25;8.00;;;4.63;;
19940;SDS011;10132;50.864;5.176;2023-06-14T09:04:28;6.40;;;4.47;;
19940;SDS011;10132;50.864;5.176;2023-06-14T09:06:30;7.22;;;4.45;;
19940;SDS011;10132;50.864;5.176;2023-06-14T09:08:33;14.77;;;5.03;;
19940;SDS011;10132;50.864;5.176;2023-06-14T09:10:35;9.52;;;4.25;;
19940;SDS011;10132;50.864;5.176;2023-06-14T09:12:37;10.10;;;4.60;;
19940;SDS011;10132;50.864;5.176;2023-06-14T09:14:39;9.05;;;4.18;;
19940;SDS011;10132;50.864;5.176;2023-06-14T09:16:42;7.82;;;4.03;;
19940;SDS011;10132;50.864;5.176;2023-06-14T09:18:46;7.40;;;4.00;;
19940;SDS011;10132;50.864;5.176;2023-06-14T09:20:48;10.35;;;4.20;;
19940;SDS011;10132;50.864;5.176;2023-06-14T09:22:50;11.73;;;4.20;;
19940;SDS011;10132;50.864;5.176;2023-06-14T09:24:53;9.48;;;4.13;;
19940;SDS011;10132;50.864;5.176;2023-06-14T09:26:55;9.05;;;4.00;;
19940;SDS011;10132;50.864;5.176;2023-06-14T09:28:58;9.77;;;3.92;;
19940;SDS011;10132;50.864;5.176;2023-06-14T09:31:00;7.93;;;3.78;;
19940;SDS011;10132;50.864;5.176;2023-06-14T09:33:02;8.75;;;4.13;;
19940;SDS011;10132;50.864;5.176;2023-06-14T09:35:06;11.15;;;4.15;;
19940;SDS011;10132;50.864;5.176;2023-06-14T09:37:09;7.20;;;3.60;;
19940;SDS011;10132;50.864;5.176;2023-06-14T09:39:11;8.60;;;3.78;;
19940;SDS011;10132;50.864;5.176;2023-06-14T09:41:18;6.38;;;3.40;;
19940;SDS011;10132;50.864;5.176;2023-06-14T09:43:20;6.72;;;3.28;;
19940;SDS011;10132;50.864;5.176;2023-06-14T09:45:22;5.47;;;3.67;;
19940;SDS011;10132;50.864;5.176;2023-06-14T09:47:25;6.65;;;3.53;;
19940;SDS011;10132;50.864;5.176;2023-06-14T09:49:27;6.82;;;3.53;;
19940;SDS011;10132;50.864;5.176;2023-06-14T09:51:30;8.70;;;3.70;;
19940;SDS011;10132;50.864;5.176;2023-06-14T09:53:33;10.85;;;3.80;;
19940;SDS011;10132;50.864;5.176;2023-06-14T09:55:37;5.22;;;3.65;;
19940;SDS011;10132;50.864;5.176;2023-06-14T09:57:42;9.88;;;3.60;;
19940;SDS011;10132;50.864;5.176;2023-06-14T09:59:48;5.97;;;4.07;;
19940;SDS011;10132;50.864;5.176;2023-06-14T10:01:54;16.48;;;4.10;;
19940;SDS011;10132;50.864;5.176;2023-06-14T10:04:00;5.25;;;3.05;;
19940;SDS011;10132;50.864;5.176;2023-06-14T10:06:04;7.90;;;3.20;;
19940;SDS011;10132;50.864;5.176;2023-06-14T10:08:13;5.75;;;3.22;;
19940;SDS011;10132;50.864;5.176;2023-06-14T10:10:17;4.70;;;3.00;;
19940;SDS011;10132;50.864;5.176;2023-06-14T10:12:19;10.10;;;3.08;;
19940;SDS011;10132;50.864;5.176;2023-06-14T10:14:22;8.75;;;3.33;;
19940;SDS011;10132;50.864;5.176;2023-06-14T10:16:27;6.13;;;3.05;;
19940;SDS011;10132;50.864;5.176;2023-06-14T10:18:33;7.55;;;3.70;;
19940;SDS011;10132;50.864;5.176;2023-06-14T10:20:44;4.95;;;3.25;;
19940;SDS011;10132;50.864;5.176;2023-06-14T10:22:54;7.47;;;3.40;;
19940;SDS011;10132;50.864;5.176;2023-06-14T10:25:02;6.30;;;3.13;;
19940;SDS011;10132;50.864;5.176;2023-06-14T10:27:13;7.25;;;3.55;;
19940;SDS011;10132;50.864;5.176;2023-06-14T10:29:17;4.57;;;3.30;;
19940;SDS011;10132;50.864;5.176;2023-06-14T10:31:19;5.38;;;3.08;;
19940;SDS011;10132;50.864;5.176;2023-06-14T10:33:21;4.53;;;2.97;;
19940;SDS011;10132;50.864;5.176;2023-06-14T10:35:23;5.70;;;2.75;;
19940;SDS011;10132;50.864;5.176;2023-06-14T10:37:25;5.07;;;2.90;;
19940;SDS011;10132;50.864;5.176;2023-06-14T10:39:27;7.40;;;2.75;;
19940;SDS011;10132;50.864;5.176;2023-06-14T10:41:31;7.10;;;2.92;;
19940;SDS011;10132;50.864;5.176;2023-06-14T10:43:36;9.57;;;3.08;;
19940;SDS011;10132;50.864;5.176;2023-06-14T10:45:40;4.95;;;2.95;;
19940;SDS011;10132;50.864;5.176;2023-06-14T10:48:29;7.57;;;3.13;;
19940;SDS011;10132;50.864;5.176;2023-06-14T10:50:31;4.63;;;3.03;;
19940;SDS011;10132;50.864;5.176;2023-06-14T10:52:34;5.60;;;3.40;;
19940;SDS011;10132;50.864;5.176;2023-06-14T10:54:47;3.95;;;2.97;;
19940;SDS011;10132;50.864;5.176;2023-06-14T10:57:16;5.47;;;3.33;;
19940;SDS011;10132;50.864;5.176;2023-06-14T10:59:19;6.78;;;3.00;;
19940;SDS011;10132;50.864;5.176;2023-06-14T11:01:23;5.70;;;3.08;;
19940;SDS011;10132;50.864;5.176;2023-06-14T11:03:48;5.07;;;3.10;;
19940;SDS011;10132;50.864;5.176;2023-06-14T11:05:53;7.07;;;2.88;;
19940;SDS011;10132;50.864;5.176;2023-06-14T11:08:05;8.40;;;2.97;;
19940;SDS011;10132;50.864;5.176;2023-06-14T11:10:25;6.47;;;3.10;;
19940;SDS011;10132;50.864;5.176;2023-06-14T11:12:36;5.38;;;2.97;;
19940;SDS011;10132;50.864;5.176;2023-06-14T11:14:42;5.78;;;3.22;;
19940;SDS011;10132;50.864;5.176;2023-06-14T11:16:48;6.65;;;2.67;;
19940;SDS011;10132;50.864;5.176;2023-06-14T11:18:50;7.93;;;3.03;;
19940;SDS011;10132;50.864;5.176;2023-06-14T11:20:52;4.00;;;2.80;;
19940;SDS011;10132;50.864;5.176;2023-06-14T11:22:54;6.75;;;3.10;;
19940;SDS011;10132;50.864;5.176;2023-06-14T11:24:56;4.38;;;3.03;;
19940;SDS011;10132;50.864;5.176;2023-06-14T11:27:03;6.25;;;2.90;;
19940;SDS011;10132;50.864;5.176;2023-06-14T11:29:08;6.10;;;3.10;;
19940;SDS011;10132;50.864;5.176;2023-06-14T11:31:10;6.13;;;2.95;;
19940;SDS011;10132;50.864;5.176;2023-06-14T11:33:16;8.07;;;3.47;;
19940;SDS011;10132;50.864;5.176;2023-06-14T11:35:18;13.20;;;3.60;;
19940;SDS011;10132;50.864;5.176;2023-06-14T11:37:23;7.10;;;3.50;;
19940;SDS011;10132;50.864;5.176;2023-06-14T11:39:26;7.43;;;3.20;;
19940;SDS011;10132;50.864;5.176;2023-06-14T11:41:37;6.85;;;2.80;;
19940;SDS011;10132;50.864;5.176;2023-06-14T11:43:40;6.63;;;3.40;;
19940;SDS011;10132;50.864;5.176;2023-06-14T11:45:43;6.65;;;2.90;;
19940;SDS011;10132;50.864;5.176;2023-06-14T11:47:49;4.63;;;2.50;;
19940;SDS011;10132;50.864;5.176;2023-06-14T11:49:51;4.50;;;3.13;;
19940;SDS011;10132;50.864;5.176;2023-06-14T11:51:53;6.28;;;2.70;;
19940;SDS011;10132;50.864;5.176;2023-06-14T11:53:55;3.78;;;2.40;;
19940;SDS011;10132;50.864;5.176;2023-06-14T11:55:58;4.10;;;2.25;;
19940;SDS011;10132;50.864;5.176;2023-06-14T11:58:00;4.20;;;2.30;;
19940;SDS011;10132;50.864;5.176;2023-06-14T12:00:03;3.33;;;2.22;;
19940;SDS011;10132;50.864;5.176;2023-06-14T12:02:15;4.47;;;1.80;;
19940;SDS011;10132;50.864;5.176;2023-06-14T12:04:23;4.07;;;2.15;;
19940;SDS011;10132;50.864;5.176;2023-06-14T12:06:26;3.80;;;1.90;;
19940;SDS011;10132;50.864;5.176;2023-06-14T12:08:34;4.03;;;1.98;;
19940;SDS011;10132;50.864;5.176;2023-06-14T12:10:40;4.57;;;1.77;;
19940;SDS011;10132;50.864;5.176;2023-06-14T12:12:43;4.15;;;1.77;;
19940;SDS011;10132;50.864;5.176;2023-06-14T12:14:45;4.20;;;1.85;;
19940;SDS011;10132;50.864;5.176;2023-06-14T12:16:49;6.82;;;1.92;;
19940;SDS011;10132;50.864;5.176;2023-06-14T12:18:52;4.63;;;1.80;;
19940;SDS011;10132;50.864;5.176;2023-06-14T12:20:55;7.03;;;2.03;;